sensor_id;sensor_type;location;lat;lon;timestamp;temperature;humidity
17621;DHT22;8929;51.008;6.804;2022-07-04T00:01:14;17.30;99.90
17621;DHT22;8929;51.008;6.804;2022-07-04T00:03:39;17.30;99.90
17621;DHT22;8929;51.008;6.804;2022-07-04T00:06:06;17.20;99.90
17621;DHT22;8929;51.008;6.804;2022-07-04T00:08:31;17.30;99.90
17621;DHT22;8929;51.008;6.804;2022-07-04T00:10:57;17.30;99.90
17621;DHT22;8929;51.008;6.804;2022-07-04T00:13:23;17.30;99.90
17621;DHT22;8929;51.008;6.804;2022-07-04T00:15:48;17.30;99.90
17621;DHT22;8929;51.008;6.804;2022-07-04T00:18:14;17.20;99.90
17621;DHT22;8929;51.008;6.804;2022-07-04T00:20:41;17.10;99.90
17621;DHT22;8929;51.008;6.804;2022-07-04T00:23:06;17.00;99.90
17621;DHT22;8929;51.008;6.804;2022-07-04T00:25:32;17.10;99.90
17621;DHT22;8929;51.008;6.804;2022-07-04T00:27:58;17.10;99.90
17621;DHT22;8929;51.008;6.804;2022-07-04T00:30:24;17.10;99.90
17621;DHT22;8929;51.008;6.804;2022-07-04T00:32:49;16.90;99.90
17621;DHT22;8929;51.008;6.804;2022-07-04T00:35:15;16.90;99.90
17621;DHT22;8929;51.008;6.804;2022-07-04T00:37:41;16.90;99.90
17621;DHT22;8929;51.008;6.804;2022-07-04T00:40:07;16.80;99.90
17621;DHT22;8929;51.008;6.804;2022-07-04T00:42:33;16.80;99.90
17621;DHT22;8929;51.008;6.804;2022-07-04T00:44:59;16.80;99.90
17621;DHT22;8929;51.008;6.804;2022-07-04T00:47:25;16.80;99.90
17621;DHT22;8929;51.008;6.804;2022-07-04T00:49:50;16.80;99.90
17621;DHT22;8929;51.008;6.804;2022-07-04T00:52:20;16.70;99.90
17621;DHT22;8929;51.008;6.804;2022-07-04T00:54:46;16.70;99.90
17621;DHT22;8929;51.008;6.804;2022-07-04T00:57:12;16.60;99.90
17621;DHT22;8929;51.008;6.804;2022-07-04T00:59:38;16.50;99.90
17621;DHT22;8929;51.008;6.804;2022-07-04T01:02:04;16.50;99.90
17621;DHT22;8929;51.008;6.804;2022-07-04T01:04:29;16.60;99.90
17621;DHT22;8929;51.008;6.804;2022-07-04T01:06:55;16.60;99.90
17621;DHT22;8929;51.008;6.804;2022-07-04T01:09:21;16.60;99.90
17621;DHT22;8929;51.008;6.804;2022-07-04T01:11:49;16.40;99.90
17621;DHT22;8929;51.008;6.804;2022-07-04T01:14:15;16.30;99.90
17621;DHT22;8929;51.008;6.804;2022-07-04T01:16:41;16.30;99.90
17621;DHT22;8929;51.008;6.804;2022-07-04T01:19:06;16.30;99.90
17621;DHT22;8929;51.008;6.804;2022-07-04T01:21:32;16.20;99.90
17621;DHT22;8929;51.008;6.804;2022-07-04T01:23:58;16.20;99.90
17621;DHT22;8929;51.008;6.804;2022-07-04T01:26:24;16.20;99.90
17621;DHT22;8929;51.008;6.804;2022-07-04T01:28:50;16.30;99.90
17621;DHT22;8929;51.008;6.804;2022-07-04T01:31:16;16.30;99.90
17621;DHT22;8929;51.008;6.804;2022-07-04T01:33:41;16.30;99.90
17621;DHT22;8929;51.008;6.804;2022-07-04T01:36:07;16.20;99.90
17621;DHT22;8929;51.008;6.804;2022-07-04T01:38:32;16.10;99.90
17621;DHT22;8929;51.008;6.804;2022-07-04T01:40:58;16.10;99.90
17621;DHT22;8929;51.008;6.804;2022-07-04T01:43:23;16.10;99.90
17621;DHT22;8929;51.008;6.804;2022-07-04T01:45:49;16.00;99.90
17621;DHT22;8929;51.008;6.804;2022-07-04T01:48:15;15.90;99.90
17621;DHT22;8929;51.008;6.804;2022-07-04T01:50:41;15.90;99.90
17621;DHT22;8929;51.008;6.804;2022-07-04T01:53:07;15.80;99.90
17621;DHT22;8929;51.008;6.804;2022-07-04T01:55:33;15.80;99.90
17621;DHT22;8929;51.008;6.804;2022-07-04T01:57:59;15.80;99.90
17621;DHT22;8929;51.008;6.804;2022-07-04T02:00:26;15.80;99.90
17621;DHT22;8929;51.008;6.804;2022-07-04T02:03:10;15.90;99.90
17621;DHT22;8929;51.008;6.804;2022-07-04T02:05:35;15.80;99.90
17621;DHT22;8929;51.008;6.804;2022-07-04T02:08:03;15.90;99.90
17621;DHT22;8929;51.008;6.804;2022-07-04T02:10:29;15.90;99.90
17621;DHT22;8929;51.008;6.804;2022-07-04T02:12:54;15.90;99.90
17621;DHT22;8929;51.008;6.804;2022-07-04T02:18:02;15.80;99.90
17621;DHT22;8929;51.008;6.804;2022-07-04T02:20:27;15.80;99.90
17621;DHT22;8929;51.008;6.804;2022-07-04T02:22:53;15.80;99.90
17621;DHT22;8929;51.008;6.804;2022-07-04T02:25:19;15.70;99.90
17621;DHT22;8929;51.008;6.804;2022-07-04T02:27:45;15.60;99.90
17621;DHT22;8929;51.008;6.804;2022-07-04T02:30:11;15.60;99.90
17621;DHT22;8929;51.008;6.804;2022-07-04T02:32:38;15.60;99.90
17621;DHT22;8929;51.008;6.804;2022-07-04T02:35:05;15.50;99.90
17621;DHT22;8929;51.008;6.804;2022-07-04T02:37:30;15.50;99.90
17621;DHT22;8929;51.008;6.804;2022-07-04T02:39:56;15.50;99.90
17621;DHT22;8929;51.008;6.804;2022-07-04T02:42:22;15.60;99.90
17621;DHT22;8929;51.008;6.804;2022-07-04T02:44:48;15.60;99.90
17621;DHT22;8929;51.008;6.804;2022-07-04T02:47:14;15.50;99.90
17621;DHT22;8929;51.008;6.804;2022-07-04T02:49:39;15.60;99.90
17621;DHT22;8929;51.008;6.804;2022-07-04T02:52:05;15.60;99.90
17621;DHT22;8929;51.008;6.804;2022-07-04T02:54:31;15.60;99.90
17621;DHT22;8929;51.008;6.804;2022-07-04T02:56:56;15.60;99.90
17621;DHT22;8929;51.008;6.804;2022-07-04T02:59:22;15.60;99.90
17621;DHT22;8929;51.008;6.804;2022-07-04T03:01:47;15.50;99.90
17621;DHT22;8929;51.008;6.804;2022-07-04T03:04:13;15.50;99.90
17621;DHT22;8929;51.008;6.804;2022-07-04T03:06:38;15.50;99.90
17621;DHT22;8929;51.008;6.804;2022-07-04T03:09:05;15.50;99.90
17621;DHT22;8929;51.008;6.804;2022-07-04T03:11:31;15.50;99.90
17621;DHT22;8929;51.008;6.804;2022-07-04T03:13:57;15.50;99.90
17621;DHT22;8929;51.008;6.804;2022-07-04T03:16:22;15.50;99.90
17621;DHT22;8929;51.008;6.804;2022-07-04T03:18:48;15.40;99.90
17621;DHT22;8929;51.008;6.804;2022-07-04T03:21:13;15.30;99.90
17621;DHT22;8929;51.008;6.804;2022-07-04T03:23:39;15.30;99.90
17621;DHT22;8929;51.008;6.804;2022-07-04T03:26:04;15.30;99.90
17621;DHT22;8929;51.008;6.804;2022-07-04T03:28:30;15.30;99.90
17621;DHT22;8929;51.008;6.804;2022-07-04T03:30:56;15.20;99.90
17621;DHT22;8929;51.008;6.804;2022-07-04T03:33:21;15.20;99.90
17621;DHT22;8929;51.008;6.804;2022-07-04T03:35:47;15.10;99.90
17621;DHT22;8929;51.008;6.804;2022-07-04T03:38:12;15.20;99.90
17621;DHT22;8929;51.008;6.804;2022-07-04T03:40:38;15.20;99.90
17621;DHT22;8929;51.008;6.804;2022-07-04T03:43:04;15.20;99.90
17621;DHT22;8929;51.008;6.804;2022-07-04T03:45:33;15.30;99.90
17621;DHT22;8929;51.008;6.804;2022-07-04T03:48:00;15.30;99.90
17621;DHT22;8929;51.008;6.804;2022-07-04T03:50:28;15.30;99.90
17621;DHT22;8929;51.008;6.804;2022-07-04T03:52:53;15.30;99.90
17621;DHT22;8929;51.008;6.804;2022-07-04T03:55:19;15.30;99.90
17621;DHT22;8929;51.008;6.804;2022-07-04T03:57:45;15.40;99.90
17621;DHT22;8929;51.008;6.804;2022-07-04T04:00:11;15.40;99.90
17621;DHT22;8929;51.008;6.804;2022-07-04T04:02:37;15.40;99.90
17621;DHT22;8929;51.008;6.804;2022-07-04T04:05:03;15.40;99.90
17621;DHT22;8929;51.008;6.804;2022-07-04T04:08:05;15.40;99.90
17621;DHT22;8929;51.008;6.804;2022-07-04T04:10:31;15.50;99.90
17621;DHT22;8929;51.008;6.804;2022-07-04T04:12:57;15.60;99.90
17621;DHT22;8929;51.008;6.804;2022-07-04T04:15:23;15.60;99.90
17621;DHT22;8929;51.008;6.804;2022-07-04T04:17:49;15.60;99.90
17621;DHT22;8929;51.008;6.804;2022-07-04T04:20:14;15.70;99.90
17621;DHT22;8929;51.008;6.804;2022-07-04T04:22:40;15.70;99.90
17621;DHT22;8929;51.008;6.804;2022-07-04T04:25:06;15.80;99.90
17621;DHT22;8929;51.008;6.804;2022-07-04T04:27:32;15.80;99.90
17621;DHT22;8929;51.008;6.804;2022-07-04T04:29:58;15.90;99.90
17621;DHT22;8929;51.008;6.804;2022-07-04T04:32:23;15.90;99.90
17621;DHT22;8929;51.008;6.804;2022-07-04T04:34:49;15.90;99.90
17621;DHT22;8929;51.008;6.804;2022-07-04T04:37:14;16.00;99.90
17621;DHT22;8929;51.008;6.804;2022-07-04T04:39:40;16.10;99.90
17621;DHT22;8929;51.008;6.804;2022-07-04T04:42:05;16.20;99.90
17621;DHT22;8929;51.008;6.804;2022-07-04T04:44:31;16.20;99.90
17621;DHT22;8929;51.008;6.804;2022-07-04T04:46:57;16.30;99.90
17621;DHT22;8929;51.008;6.804;2022-07-04T04:49:22;16.30;99.90
17621;DHT22;8929;51.008;6.804;2022-07-04T04:51:48;16.50;99.90
17621;DHT22;8929;51.008;6.804;2022-07-04T04:54:13;16.60;99.90
17621;DHT22;8929;51.008;6.804;2022-07-04T04:56:39;16.60;99.90
17621;DHT22;8929;51.008;6.804;2022-07-04T04:59:04;16.70;99.90
17621;DHT22;8929;51.008;6.804;2022-07-04T05:01:30;16.80;99.90
17621;DHT22;8929;51.008;6.804;2022-07-04T05:03:56;16.80;99.90
17621;DHT22;8929;51.008;6.804;2022-07-04T05:06:21;16.90;99.90
17621;DHT22;8929;51.008;6.804;2022-07-04T05:08:47;16.90;99.90
17621;DHT22;8929;51.008;6.804;2022-07-04T05:11:13;17.00;99.90
17621;DHT22;8929;51.008;6.804;2022-07-04T05:13:39;17.00;99.90
17621;DHT22;8929;51.008;6.804;2022-07-04T05:16:04;17.10;99.90
17621;DHT22;8929;51.008;6.804;2022-07-04T05:18:30;17.10;99.90
17621;DHT22;8929;51.008;6.804;2022-07-04T05:20:55;17.20;99.90
17621;DHT22;8929;51.008;6.804;2022-07-04T05:23:21;17.30;99.90
17621;DHT22;8929;51.008;6.804;2022-07-04T05:25:50;17.40;99.90
17621;DHT22;8929;51.008;6.804;2022-07-04T05:28:15;17.40;99.90
17621;DHT22;8929;51.008;6.804;2022-07-04T05:30:41;17.50;99.90
17621;DHT22;8929;51.008;6.804;2022-07-04T05:33:07;17.50;99.90
17621;DHT22;8929;51.008;6.804;2022-07-04T05:35:33;17.60;99.90
17621;DHT22;8929;51.008;6.804;2022-07-04T05:37:58;17.70;99.90
17621;DHT22;8929;51.008;6.804;2022-07-04T05:40:24;17.80;99.90
17621;DHT22;8929;51.008;6.804;2022-07-04T05:42:50;17.90;99.90
17621;DHT22;8929;51.008;6.804;2022-07-04T05:45:15;18.00;99.90
17621;DHT22;8929;51.008;6.804;2022-07-04T05:47:41;18.00;99.90
17621;DHT22;8929;51.008;6.804;2022-07-04T05:50:07;18.20;99.90
17621;DHT22;8929;51.008;6.804;2022-07-04T05:52:33;18.30;99.90
17621;DHT22;8929;51.008;6.804;2022-07-04T05:54:58;18.40;99.90
17621;DHT22;8929;51.008;6.804;2022-07-04T05:57:24;18.40;99.90
17621;DHT22;8929;51.008;6.804;2022-07-04T05:59:50;18.50;99.90
17621;DHT22;8929;51.008;6.804;2022-07-04T06:02:15;18.60;99.90
17621;DHT22;8929;51.008;6.804;2022-07-04T06:04:41;18.60;99.90
17621;DHT22;8929;51.008;6.804;2022-07-04T06:07:08;18.70;99.90
17621;DHT22;8929;51.008;6.804;2022-07-04T06:09:34;18.80;99.90
17621;DHT22;8929;51.008;6.804;2022-07-04T06:12:00;18.80;99.90
17621;DHT22;8929;51.008;6.804;2022-07-04T06:14:25;18.70;99.90
17621;DHT22;8929;51.008;6.804;2022-07-04T06:16:51;18.70;99.90
17621;DHT22;8929;51.008;6.804;2022-07-04T06:19:16;18.80;99.90
17621;DHT22;8929;51.008;6.804;2022-07-04T06:21:42;18.90;99.90
17621;DHT22;8929;51.008;6.804;2022-07-04T06:24:07;18.90;99.90
17621;DHT22;8929;51.008;6.804;2022-07-04T06:26:33;18.90;99.90
17621;DHT22;8929;51.008;6.804;2022-07-04T06:28:59;18.90;99.90
17621;DHT22;8929;51.008;6.804;2022-07-04T06:31:24;18.90;99.90
17621;DHT22;8929;51.008;6.804;2022-07-04T06:33:50;19.00;99.90
17621;DHT22;8929;51.008;6.804;2022-07-04T06:36:34;19.00;99.90
17621;DHT22;8929;51.008;6.804;2022-07-04T06:39:00;19.00;99.90
17621;DHT22;8929;51.008;6.804;2022-07-04T06:41:26;19.10;99.90
17621;DHT22;8929;51.008;6.804;2022-07-04T06:43:51;19.10;99.90
17621;DHT22;8929;51.008;6.804;2022-07-04T06:46:17;19.30;99.90
17621;DHT22;8929;51.008;6.804;2022-07-04T06:48:42;19.40;99.90
17621;DHT22;8929;51.008;6.804;2022-07-04T06:51:08;19.50;99.90
17621;DHT22;8929;51.008;6.804;2022-07-04T06:53:34;19.50;99.90
17621;DHT22;8929;51.008;6.804;2022-07-04T06:55:59;19.60;99.90
17621;DHT22;8929;51.008;6.804;2022-07-04T06:58:25;19.70;99.90
17621;DHT22;8929;51.008;6.804;2022-07-04T07:00:51;19.70;99.90
17621;DHT22;8929;51.008;6.804;2022-07-04T07:03:16;19.70;99.90
17621;DHT22;8929;51.008;6.804;2022-07-04T07:05:42;19.70;99.90
17621;DHT22;8929;51.008;6.804;2022-07-04T07:08:08;19.80;99.90
17621;DHT22;8929;51.008;6.804;2022-07-04T07:10:33;20.00;99.90
17621;DHT22;8929;51.008;6.804;2022-07-04T07:13:01;20.10;99.90
17621;DHT22;8929;51.008;6.804;2022-07-04T07:15:27;20.10;99.90
17621;DHT22;8929;51.008;6.804;2022-07-04T07:17:53;20.20;99.90
17621;DHT22;8929;51.008;6.804;2022-07-04T07:20:18;20.20;99.90
17621;DHT22;8929;51.008;6.804;2022-07-04T07:22:44;20.30;99.90
17621;DHT22;8929;51.008;6.804;2022-07-04T07:25:10;20.40;99.90
17621;DHT22;8929;51.008;6.804;2022-07-04T07:27:36;20.50;99.90
17621;DHT22;8929;51.008;6.804;2022-07-04T07:30:03;20.60;99.90
17621;DHT22;8929;51.008;6.804;2022-07-04T07:32:29;20.60;99.90
17621;DHT22;8929;51.008;6.804;2022-07-04T07:34:55;20.50;99.90
17621;DHT22;8929;51.008;6.804;2022-07-04T07:37:20;20.60;99.90
17621;DHT22;8929;51.008;6.804;2022-07-04T07:39:47;20.60;99.90
17621;DHT22;8929;51.008;6.804;2022-07-04T07:42:13;20.70;99.90
17621;DHT22;8929;51.008;6.804;2022-07-04T07:44:39;20.80;99.90
17621;DHT22;8929;51.008;6.804;2022-07-04T07:47:04;20.80;99.90
17621;DHT22;8929;51.008;6.804;2022-07-04T07:49:30;20.80;99.90
17621;DHT22;8929;51.008;6.804;2022-07-04T07:51:56;21.00;99.90
17621;DHT22;8929;51.008;6.804;2022-07-04T07:54:21;21.00;99.90
17621;DHT22;8929;51.008;6.804;2022-07-04T07:56:47;21.00;99.90
17621;DHT22;8929;51.008;6.804;2022-07-04T07:59:13;21.10;99.90
17621;DHT22;8929;51.008;6.804;2022-07-04T08:01:38;21.30;99.90
17621;DHT22;8929;51.008;6.804;2022-07-04T08:04:04;21.40;99.90
17621;DHT22;8929;51.008;6.804;2022-07-04T08:06:48;21.60;99.90
17621;DHT22;8929;51.008;6.804;2022-07-04T08:09:14;21.70;99.90
17621;DHT22;8929;51.008;6.804;2022-07-04T08:11:40;21.90;99.90
17621;DHT22;8929;51.008;6.804;2022-07-04T08:14:06;22.00;99.90
17621;DHT22;8929;51.008;6.804;2022-07-04T08:16:33;22.60;99.90
17621;DHT22;8929;51.008;6.804;2022-07-04T08:18:59;24.00;99.90
17621;DHT22;8929;51.008;6.804;2022-07-04T08:21:25;25.20;99.90
17621;DHT22;8929;51.008;6.804;2022-07-04T08:23:50;26.20;99.50
17621;DHT22;8929;51.008;6.804;2022-07-04T08:26:16;26.90;96.60
17621;DHT22;8929;51.008;6.804;2022-07-04T08:28:41;27.50;96.90
17621;DHT22;8929;51.008;6.804;2022-07-04T08:31:07;28.10;90.20
17621;DHT22;8929;51.008;6.804;2022-07-04T08:33:32;28.80;85.50
17621;DHT22;8929;51.008;6.804;2022-07-04T08:35:58;29.30;85.40
17621;DHT22;8929;51.008;6.804;2022-07-04T08:38:24;29.90;73.10
17621;DHT22;8929;51.008;6.804;2022-07-04T08:40:54;30.40;70.10
17621;DHT22;8929;51.008;6.804;2022-07-04T08:43:23;30.70;63.60
17621;DHT22;8929;51.008;6.804;2022-07-04T08:45:53;31.00;62.70
17621;DHT22;8929;51.008;6.804;2022-07-04T08:48:24;31.70;63.20
17621;DHT22;8929;51.008;6.804;2022-07-04T08:50:56;31.90;55.80
17621;DHT22;8929;51.008;6.804;2022-07-04T08:53:27;32.60;56.00
17621;DHT22;8929;51.008;6.804;2022-07-04T08:55:55;33.00;53.00
17621;DHT22;8929;51.008;6.804;2022-07-04T08:58:40;33.70;52.50
17621;DHT22;8929;51.008;6.804;2022-07-04T09:01:08;34.70;51.60
17621;DHT22;8929;51.008;6.804;2022-07-04T09:03:36;35.30;47.90
17621;DHT22;8929;51.008;6.804;2022-07-04T09:06:02;35.50;46.50
17621;DHT22;8929;51.008;6.804;2022-07-04T09:08:28;35.80;46.50
17621;DHT22;8929;51.008;6.804;2022-07-04T09:10:54;36.40;46.10
17621;DHT22;8929;51.008;6.804;2022-07-04T09:13:20;37.00;43.50
17621;DHT22;8929;51.008;6.804;2022-07-04T09:15:48;36.30;41.60
17621;DHT22;8929;51.008;6.804;2022-07-04T09:18:25;35.50;41.00
17621;DHT22;8929;51.008;6.804;2022-07-04T09:20:54;36.00;42.30
17621;DHT22;8929;51.008;6.804;2022-07-04T09:23:24;36.40;41.10
17621;DHT22;8929;51.008;6.804;2022-07-04T09:28:40;36.60;40.80
17621;DHT22;8929;51.008;6.804;2022-07-04T09:31:21;37.10;40.70
17621;DHT22;8929;51.008;6.804;2022-07-04T09:33:49;37.60;39.60
17621;DHT22;8929;51.008;6.804;2022-07-04T09:36:16;38.10;38.40
17621;DHT22;8929;51.008;6.804;2022-07-04T09:38:43;38.70;36.90
17621;DHT22;8929;51.008;6.804;2022-07-04T09:41:09;39.00;36.50
17621;DHT22;8929;51.008;6.804;2022-07-04T09:44:06;39.10;35.40
17621;DHT22;8929;51.008;6.804;2022-07-04T09:46:32;38.70;35.60
17621;DHT22;8929;51.008;6.804;2022-07-04T09:48:59;38.80;36.20
17621;DHT22;8929;51.008;6.804;2022-07-04T09:51:48;38.60;36.20
17621;DHT22;8929;51.008;6.804;2022-07-04T09:54:27;38.90;36.70
17621;DHT22;8929;51.008;6.804;2022-07-04T09:56:58;39.50;36.00
17621;DHT22;8929;51.008;6.804;2022-07-04T09:59:25;40.40;36.80
17621;DHT22;8929;51.008;6.804;2022-07-04T10:02:06;41.00;34.90
17621;DHT22;8929;51.008;6.804;2022-07-04T10:04:49;41.20;34.00
17621;DHT22;8929;51.008;6.804;2022-07-04T10:07:34;41.40;32.70
17621;DHT22;8929;51.008;6.804;2022-07-04T10:10:19;41.00;32.20
17621;DHT22;8929;51.008;6.804;2022-07-04T10:12:49;41.10;32.50
17621;DHT22;8929;51.008;6.804;2022-07-04T10:15:16;41.70;32.90
17621;DHT22;8929;51.008;6.804;2022-07-04T10:17:41;42.20;32.50
17621;DHT22;8929;51.008;6.804;2022-07-04T10:20:08;42.30;31.20
17621;DHT22;8929;51.008;6.804;2022-07-04T10:22:35;42.10;31.10
17621;DHT22;8929;51.008;6.804;2022-07-04T10:25:01;42.70;32.30
17621;DHT22;8929;51.008;6.804;2022-07-04T10:27:27;43.00;30.50
17621;DHT22;8929;51.008;6.804;2022-07-04T10:29:53;43.00;30.30
17621;DHT22;8929;51.008;6.804;2022-07-04T10:32:20;42.50;30.30
17621;DHT22;8929;51.008;6.804;2022-07-04T10:34:45;42.00;29.60
17621;DHT22;8929;51.008;6.804;2022-07-04T10:37:11;40.90;30.60
17621;DHT22;8929;51.008;6.804;2022-07-04T10:39:44;39.70;31.70
17621;DHT22;8929;51.008;6.804;2022-07-04T10:42:22;38.70;30.90
17621;DHT22;8929;51.008;6.804;2022-07-04T10:44:52;37.80;32.90
17621;DHT22;8929;51.008;6.804;2022-07-04T10:47:25;37.00;34.80
17621;DHT22;8929;51.008;6.804;2022-07-04T10:49:54;36.10;33.30
17621;DHT22;8929;51.008;6.804;2022-07-04T10:52:20;35.10;34.70
17621;DHT22;8929;51.008;6.804;2022-07-04T10:54:45;33.70;35.10
17621;DHT22;8929;51.008;6.804;2022-07-04T10:57:19;32.40;37.50
17621;DHT22;8929;51.008;6.804;2022-07-04T11:02:40;31.50;40.00
17621;DHT22;8929;51.008;6.804;2022-07-04T11:05:07;30.70;41.70
17621;DHT22;8929;51.008;6.804;2022-07-04T11:20:23;30.00;42.70
17621;DHT22;8929;51.008;6.804;2022-07-04T11:22:49;29.20;42.40
17621;DHT22;8929;51.008;6.804;2022-07-04T11:25:15;28.70;44.10
17621;DHT22;8929;51.008;6.804;2022-07-04T11:27:41;28.70;45.20
17621;DHT22;8929;51.008;6.804;2022-07-04T11:30:08;28.70;44.60
17621;DHT22;8929;51.008;6.804;2022-07-04T11:32:35;28.70;45.90
17621;DHT22;8929;51.008;6.804;2022-07-04T11:35:03;28.50;45.50
17621;DHT22;8929;51.008;6.804;2022-07-04T11:37:29;28.20;46.90
17621;DHT22;8929;51.008;6.804;2022-07-04T11:39:56;28.20;45.40
17621;DHT22;8929;51.008;6.804;2022-07-04T11:43:02;28.10;47.10
17621;DHT22;8929;51.008;6.804;2022-07-04T11:45:44;28.10;45.90
17621;DHT22;8929;51.008;6.804;2022-07-04T11:48:10;28.10;44.10
17621;DHT22;8929;51.008;6.804;2022-07-04T11:50:36;28.10;45.00
17621;DHT22;8929;51.008;6.804;2022-07-04T11:53:04;28.20;45.50
17621;DHT22;8929;51.008;6.804;2022-07-04T11:55:30;28.10;44.40
17621;DHT22;8929;51.008;6.804;2022-07-04T11:57:55;27.90;44.90
17621;DHT22;8929;51.008;6.804;2022-07-04T12:00:28;27.50;45.60
17621;DHT22;8929;51.008;6.804;2022-07-04T12:02:59;27.20;46.80
17621;DHT22;8929;51.008;6.804;2022-07-04T12:05:25;27.10;47.70
17621;DHT22;8929;51.008;6.804;2022-07-04T12:07:50;27.30;48.40
17621;DHT22;8929;51.008;6.804;2022-07-04T12:10:23;27.50;46.60
17621;DHT22;8929;51.008;6.804;2022-07-04T12:15:29;27.50;48.50
17621;DHT22;8929;51.008;6.804;2022-07-04T12:18:01;27.30;48.20
17621;DHT22;8929;51.008;6.804;2022-07-04T12:20:26;27.40;46.90
17621;DHT22;8929;51.008;6.804;2022-07-04T12:22:54;27.50;48.00
17621;DHT22;8929;51.008;6.804;2022-07-04T12:27:59;27.40;48.40
17621;DHT22;8929;51.008;6.804;2022-07-04T12:30:27;27.30;48.90
17621;DHT22;8929;51.008;6.804;2022-07-04T12:33:01;27.20;46.70
17621;DHT22;8929;51.008;6.804;2022-07-04T12:35:46;27.10;47.20
17621;DHT22;8929;51.008;6.804;2022-07-04T12:41:04;27.10;49.70
17621;DHT22;8929;51.008;6.804;2022-07-04T12:46:07;27.90;47.50
17621;DHT22;8929;51.008;6.804;2022-07-04T12:48:33;28.10;47.70
17621;DHT22;8929;51.008;6.804;2022-07-04T12:51:21;28.00;47.60
17621;DHT22;8929;51.008;6.804;2022-07-04T12:53:49;27.80;46.50
17621;DHT22;8929;51.008;6.804;2022-07-04T12:59:15;28.00;47.10
17621;DHT22;8929;51.008;6.804;2022-07-04T13:01:44;28.10;47.50
17621;DHT22;8929;51.008;6.804;2022-07-04T13:04:11;28.30;47.60
17621;DHT22;8929;51.008;6.804;2022-07-04T13:06:37;28.70;46.30
17621;DHT22;8929;51.008;6.804;2022-07-04T13:09:04;28.70;47.00
17621;DHT22;8929;51.008;6.804;2022-07-04T13:11:33;28.80;46.60
17621;DHT22;8929;51.008;6.804;2022-07-04T13:14:18;28.40;44.00
17621;DHT22;8929;51.008;6.804;2022-07-04T13:16:44;28.50;45.40
17621;DHT22;8929;51.008;6.804;2022-07-04T13:19:09;28.30;44.30
17621;DHT22;8929;51.008;6.804;2022-07-04T13:21:35;27.90;45.10
17621;DHT22;8929;51.008;6.804;2022-07-04T13:24:01;28.00;46.00
17621;DHT22;8929;51.008;6.804;2022-07-04T13:26:27;27.80;45.10
17621;DHT22;8929;51.008;6.804;2022-07-04T13:28:55;27.80;46.30
17621;DHT22;8929;51.008;6.804;2022-07-04T13:31:21;27.70;46.50
17621;DHT22;8929;51.008;6.804;2022-07-04T13:33:46;27.70;46.00
17621;DHT22;8929;51.008;6.804;2022-07-04T13:36:12;27.50;47.50
17621;DHT22;8929;51.008;6.804;2022-07-04T13:38:40;27.50;45.70
17621;DHT22;8929;51.008;6.804;2022-07-04T13:41:06;27.50;45.60
17621;DHT22;8929;51.008;6.804;2022-07-04T13:43:31;27.70;47.10
17621;DHT22;8929;51.008;6.804;2022-07-04T13:45:57;27.80;46.00
17621;DHT22;8929;51.008;6.804;2022-07-04T13:48:23;27.80;45.20
17621;DHT22;8929;51.008;6.804;2022-07-04T13:50:49;27.90;45.30
17621;DHT22;8929;51.008;6.804;2022-07-04T13:53:15;28.30;46.60
17621;DHT22;8929;51.008;6.804;2022-07-04T13:55:41;28.50;44.30
17621;DHT22;8929;51.008;6.804;2022-07-04T13:58:08;29.00;44.80
17621;DHT22;8929;51.008;6.804;2022-07-04T14:00:35;29.10;45.60
17621;DHT22;8929;51.008;6.804;2022-07-04T14:03:01;29.00;43.00
17621;DHT22;8929;51.008;6.804;2022-07-04T14:05:27;28.80;45.20
17621;DHT22;8929;51.008;6.804;2022-07-04T14:07:53;28.60;44.20
17621;DHT22;8929;51.008;6.804;2022-07-04T14:10:19;28.30;44.20
17621;DHT22;8929;51.008;6.804;2022-07-04T14:12:44;28.20;45.20
17621;DHT22;8929;51.008;6.804;2022-07-04T14:15:10;27.90;44.70
17621;DHT22;8929;51.008;6.804;2022-07-04T14:17:36;27.70;44.90
17621;DHT22;8929;51.008;6.804;2022-07-04T14:20:07;27.50;43.80
17621;DHT22;8929;51.008;6.804;2022-07-04T14:22:34;27.30;45.10
17621;DHT22;8929;51.008;6.804;2022-07-04T14:24:59;27.30;44.00
17621;DHT22;8929;51.008;6.804;2022-07-04T14:27:25;27.40;44.90
17621;DHT22;8929;51.008;6.804;2022-07-04T14:29:51;27.60;45.40
17621;DHT22;8929;51.008;6.804;2022-07-04T14:32:16;28.00;47.80
17621;DHT22;8929;51.008;6.804;2022-07-04T14:34:42;28.70;44.10
17621;DHT22;8929;51.008;6.804;2022-07-04T14:37:08;29.80;45.50
17621;DHT22;8929;51.008;6.804;2022-07-04T14:39:34;31.30;41.00
17621;DHT22;8929;51.008;6.804;2022-07-04T14:41:59;33.00;39.60
17621;DHT22;8929;51.008;6.804;2022-07-04T14:44:25;33.40;38.80
17621;DHT22;8929;51.008;6.804;2022-07-04T14:46:50;33.20;38.40
17621;DHT22;8929;51.008;6.804;2022-07-04T14:49:16;32.70;38.70
17621;DHT22;8929;51.008;6.804;2022-07-04T14:51:42;32.20;40.10
17621;DHT22;8929;51.008;6.804;2022-07-04T14:54:08;31.90;39.90
17621;DHT22;8929;51.008;6.804;2022-07-04T14:56:35;32.20;39.60
17621;DHT22;8929;51.008;6.804;2022-07-04T14:59:01;32.40;39.50
17621;DHT22;8929;51.008;6.804;2022-07-04T15:01:26;33.30;41.90
17621;DHT22;8929;51.008;6.804;2022-07-04T15:03:53;34.50;37.10
17621;DHT22;8929;51.008;6.804;2022-07-04T15:06:19;35.80;39.30
17621;DHT22;8929;51.008;6.804;2022-07-04T15:08:44;37.40;38.30
17621;DHT22;8929;51.008;6.804;2022-07-04T15:11:10;38.80;35.40
17621;DHT22;8929;51.008;6.804;2022-07-04T15:13:36;39.90;33.30
17621;DHT22;8929;51.008;6.804;2022-07-04T15:16:01;41.00;32.50
17621;DHT22;8929;51.008;6.804;2022-07-04T15:18:27;41.40;31.00
17621;DHT22;8929;51.008;6.804;2022-07-04T15:20:52;41.70;31.00
17621;DHT22;8929;51.008;6.804;2022-07-04T15:23:36;41.30;29.80
17621;DHT22;8929;51.008;6.804;2022-07-04T15:26:20;42.00;30.10
17621;DHT22;8929;51.008;6.804;2022-07-04T15:28:46;42.40;30.00
17621;DHT22;8929;51.008;6.804;2022-07-04T15:31:11;42.50;29.20
17621;DHT22;8929;51.008;6.804;2022-07-04T15:33:38;42.70;29.30
17621;DHT22;8929;51.008;6.804;2022-07-04T15:38:32;43.40;28.90
17621;DHT22;8929;51.008;6.804;2022-07-04T15:40:57;43.40;29.30
17621;DHT22;8929;51.008;6.804;2022-07-04T15:43:28;42.50;26.80
17621;DHT22;8929;51.008;6.804;2022-07-04T15:45:55;41.40;27.20
17621;DHT22;8929;51.008;6.804;2022-07-04T15:48:21;41.00;28.10
17621;DHT22;8929;51.008;6.804;2022-07-04T15:50:47;39.80;27.20
17621;DHT22;8929;51.008;6.804;2022-07-04T15:53:14;38.30;28.90
17621;DHT22;8929;51.008;6.804;2022-07-04T15:55:40;38.60;29.30
17621;DHT22;8929;51.008;6.804;2022-07-04T15:58:05;39.10;29.60
17621;DHT22;8929;51.008;6.804;2022-07-04T16:00:32;40.00;29.60
17621;DHT22;8929;51.008;6.804;2022-07-04T16:02:58;40.90;29.50
17621;DHT22;8929;51.008;6.804;2022-07-04T16:05:23;40.70;28.30
17621;DHT22;8929;51.008;6.804;2022-07-04T16:07:49;39.70;29.30
17621;DHT22;8929;51.008;6.804;2022-07-04T16:10:15;39.60;30.10
17621;DHT22;8929;51.008;6.804;2022-07-04T16:12:41;40.30;31.00
17621;DHT22;8929;51.008;6.804;2022-07-04T16:15:08;40.90;29.60
17621;DHT22;8929;51.008;6.804;2022-07-04T16:17:34;41.00;29.20
17621;DHT22;8929;51.008;6.804;2022-07-04T16:20:00;41.30;29.20
17621;DHT22;8929;51.008;6.804;2022-07-04T16:22:26;41.00;28.70